Aeroporto :
LOGIN :

Iscrizione | Disclaimer

   EN    FR    IT 

 










Sommario :    VFR   VFR Marginale   IFR   IFR Intensivo   IFR Molto Intensivo
Visibilità : 
Base nubi : 
>= 8 km
>= 3000ft
5 / 8 km
1000 / 3000 ft
1500m / 5 km
500 / 1000 ft
800 / 1500m
200 / 500 ft
< 800m
< 200 ft
Simboli :   Temporali  Nebbia  Neve Forte  Precipitazioni Forti  Vento > 20 kt
SIGMETs :   Varie  Temporali  Ghiacco  Turbolenza  Onda orograficha  Ceneri Vulcaniche






- Altitudine del aeroporto : 1260 ft
- Codice IATA : LDE


LFBT - Tarbes / Ossun

ULTIMO METAR :
  • 271030Z AUTO 29010KT 8000 -DZ SCT008 BKN013 BKN029 13/12 Q1016 TEMPO 4000 -RA BKN007

METARs OBSOLETI :
  • 271000Z AUTO 29009KT 260V320 6000 -RA SCT008 BKN012 OVC021 13/12 Q1016 TEMPO 4000 -RA BKN007
  • 270930Z AUTO 28007KT 250V320 4600 -RA BR FEW008 OVC018 13/12 Q1016 TEMPO BKN007
  • 270900Z AUTO 28007G18KT 250V340 4900 2400 RA BR FEW007 BKN012 BKN021 13/11 Q1016 TEMPO NSW BKN007
  • 270830Z AUTO 24010KT 9999 -RA SCT013 OVC019 13/12 Q1015 TEMPO 4000 -RA BKN007
  • 270800Z AUTO 25010KT 9999 FEW013/// BKN036/// BKN047/// ///TCU 14/12 Q1015 TEMPO 4000 -RA BKN007
  • 270730Z AUTO 25010KT 230V290 9999 FEW012/// BKN021/// BKN028/// ///TCU 14/13 Q1015 TEMPO 4000 -RA BKN007

TAF TAF LFBT
Valido dal 27 a 06 ore il 28 a 06 ore UTC


270500Z 2706/2806 27010KT 9999 BKN020 BKN035
TEMPO 2706/2802 4000 -RA BKN007
TEMPO 2706/2709 3000 RA
TEMPO 2723/2803 3000 RA
BECMG 2803/2805 SCT014TCU
TEMPO 2803/2806 4000 -SHRA



MetMap, La meteo Aeronautica in un colpo d'occhio ! - Copyright ORBIFLY Dicembre 2007 - Disclaimer

ORBIFLY MET'MAP TEAM :

Programmazione e sviluppo : Alexandra Zaïnal
Concezione : Baudouin d'Aumeries
Supporto tecnico e logistico : Manuel Goepfert
Aiuto : Marc-Olivier Méhu
Aiuto per la traduzione : Arnaldo La Scala




FONTI E CREDITI :

   NOAA